Time;durP1;ratioP1;P1;durP2;ratioP2;P2;SDS_P1;SDS_P2;PMS_P1;PMS_P2;Temp;Humidity;BMP_temperature;BMP_pressure;BME280_temperature;BME280_humidity;BME280_pressure;Samples;Min_cycle;Max_cycle;Signal;HPM_P1;HPM_P2
2024/01/30 00:00:06;;;;;;;7.10;4.47;;;;;;;;;;5010905;28;20036;-79
2024/01/30 00:02:35;;;;;;;11.05;6.25;;;;;;;;;;5013156;28;20037;-79
2024/01/30 00:05:00;;;;;;;10.13;6.95;;;;;;;;;;5017990;28;20082;-79
2024/01/30 00:07:26;;;;;;;7.82;5.20;;;;;;;;;;5010353;28;20042;-80
2024/01/30 00:09:55;;;;;;;8.60;4.93;;;;;;;;;;5010182;28;20443;-79
2024/01/30 00:12:22;;;;;;;10.07;5.72;;;;;;;;;;4996052;28;20034;-79
2024/01/30 00:14:48;;;;;;;11.02;5.93;;;;;;;;;;5011746;28;20119;-79
2024/01/30 00:17:14;;;;;;;9.65;6.03;;;;;;;;;;5012023;28;20069;-80
2024/01/30 00:19:41;;;;;;;12.13;6.18;;;;;;;;;;5013715;28;20457;-80
2024/01/30 00:22:11;;;;;;;9.05;5.95;;;;;;;;;;5014544;28;20037;-80
2024/01/30 00:24:40;;;;;;;10.07;5.28;;;;;;;;;;5011422;28;20064;-79
2024/01/30 00:27:08;;;;;;;13.48;7.47;;;;;;;;;;5012020;28;20571;-81
2024/01/30 00:29:41;;;;;;;9.55;5.43;;;;;;;;;;4996001;28;20033;-80
2024/01/30 00:32:07;;;;;;;9.27;5.68;;;;;;;;;;5012135;28;20407;-79
2024/01/30 00:34:33;;;;;;;11.30;5.30;;;;;;;;;;5011666;28;20033;-79
2024/01/30 00:36:58;;;;;;;10.38;5.25;;;;;;;;;;5012726;28;20422;-80
2024/01/30 00:39:25;;;;;;;9.32;5.65;;;;;;;;;;5012068;28;20038;-80
2024/01/30 00:41:51;;;;;;;10.18;6.10;;;;;;;;;;5011123;28;20476;-80
2024/01/30 00:44:17;;;;;;;8.70;5.75;;;;;;;;;;4994522;28;20034;-80
2024/01/30 00:46:42;;;;;;;10.48;6.00;;;;;;;;;;4996455;28;20531;-80
2024/01/30 00:49:08;;;;;;;11.80;6.90;;;;;;;;;;5012602;28;20052;-80
2024/01/30 00:51:37;;;;;;;9.98;6.05;;;;;;;;;;5011315;28;20459;-80
2024/01/30 00:54:06;;;;;;;10.20;6.00;;;;;;;;;;5011208;28;20073;-80
2024/01/30 00:56:34;;;;;;;9.60;5.85;;;;;;;;;;5011528;28;20034;-80
2024/01/30 00:59:02;;;;;;;10.00;5.95;;;;;;;;;;5012739;28;20042;-80
2024/01/30 01:01:29;;;;;;;15.05;6.85;;;;;;;;;;5010900;28;20462;-80
2024/01/30 01:03:56;;;;;;;10.63;6.05;;;;;;;;;;4994555;28;20286;-80
2024/01/30 01:06:24;;;;;;;9.70;6.15;;;;;;;;;;5012032;28;20076;-80
2024/01/30 01:08:50;;;;;;;9.10;5.05;;;;;;;;;;5030765;28;20034;-80
2024/01/30 01:11:15;;;;;;;7.68;4.80;;;;;;;;;;5031048;28;20033;-80
2024/01/30 01:13:41;;;;;;;7.75;4.93;;;;;;;;;;5031812;28;20551;-80
2024/01/30 01:16:07;;;;;;;7.32;4.88;;;;;;;;;;5012553;28;20034;-80
2024/01/30 01:18:33;;;;;;;8.10;5.30;;;;;;;;;;5011978;28;20029;-79
2024/01/30 01:21:00;;;;;;;7.97;5.45;;;;;;;;;;5010751;28;20179;-79
2024/01/30 01:23:25;;;;;;;8.15;5.20;;;;;;;;;;5024102;28;20036;-79
2024/01/30 01:25:51;;;;;;;8.48;5.22;;;;;;;;;;5028936;28;20119;-80
2024/01/30 01:28:17;;;;;;;8.07;3.92;;;;;;;;;;5013955;28;20045;-80
2024/01/30 01:30:44;;;;;;;4.53;2.85;;;;;;;;;;5031066;28;20041;-80
2024/01/30 01:33:10;;;;;;;6.20;4.00;;;;;;;;;;5030210;28;20430;-80
2024/01/30 01:35:36;;;;;;;5.65;3.80;;;;;;;;;;5031557;28;20025;-81
2024/01/30 01:38:03;;;;;;;7.03;3.72;;;;;;;;;;5021549;28;20097;-80
2024/01/30 01:40:29;;;;;;;5.70;3.60;;;;;;;;;;5011396;28;20467;-80
2024/01/30 01:42:56;;;;;;;5.40;3.50;;;;;;;;;;5013081;28;20180;-80
2024/01/30 01:45:25;;;;;;;3.97;2.67;;;;;;;;;;4992029;28;20530;-80
2024/01/30 01:47:51;;;;;;;4.45;2.80;;;;;;;;;;5010747;28;20053;-79
2024/01/30 01:50:21;;;;;;;4.95;2.83;;;;;;;;;;5010530;28;20070;-80
2024/01/30 01:52:48;;;;;;;4.78;2.60;;;;;;;;;;5010546;28;20507;-79
2024/01/30 01:55:21;;;;;;;4.60;2.50;;;;;;;;;;4994346;28;20041;-79
2024/01/30 01:57:48;;;;;;;6.80;2.95;;;;;;;;;;5007768;28;20053;-81
2024/01/30 02:00:16;;;;;;;4.35;2.83;;;;;;;;;;5011461;28;20108;-80
2024/01/30 02:02:45;;;;;;;4.90;3.10;;;;;;;;;;4998975;28;20117;-79
2024/01/30 02:05:11;;;;;;;5.55;2.72;;;;;;;;;;5012075;28;20048;-80
2024/01/30 02:07:37;;;;;;;5.35;2.67;;;;;;;;;;5010711;28;20112;-79
2024/01/30 02:10:04;;;;;;;4.97;2.40;;;;;;;;;;5011544;28;20068;-79
2024/01/30 02:12:30;;;;;;;5.25;2.50;;;;;;;;;;5010401;28;20038;-80
2024/01/30 02:14:56;;;;;;;3.05;2.03;;;;;;;;;;4994217;28;20088;-80
2024/01/30 02:17:23;;;;;;;3.60;2.08;;;;;;;;;;5011699;28;20069;-81
2024/01/30 02:19:49;;;;;;;4.35;2.28;;;;;;;;;;4996687;28;20064;-81
2024/01/30 02:22:15;;;;;;;5.10;1.98;;;;;;;;;;4994569;28;20118;-79
2024/01/30 02:24:41;;;;;;;3.50;2.10;;;;;;;;;;5010190;28;20042;-80
2024/01/30 02:27:09;;;;;;;3.55;2.05;;;;;;;;;;5010990;28;20095;-79
2024/01/30 02:29:37;;;;;;;4.07;3.00;;;;;;;;;;5011077;28;20045;-80
2024/01/30 02:32:05;;;;;;;4.30;2.65;;;;;;;;;;5011087;28;20149;-80
2024/01/30 02:34:34;;;;;;;4.68;2.60;;;;;;;;;;5010893;28;20073;-80
2024/01/30 02:37:01;;;;;;;3.75;2.50;;;;;;;;;;4995356;28;20034;-80
2024/01/30 02:39:26;;;;;;;3.72;1.98;;;;;;;;;;5013180;28;20045;-80
2024/01/30 02:41:52;;;;;;;4.45;2.70;;;;;;;;;;5014692;28;20034;-79
2024/01/30 02:44:18;;;;;;;4.35;1.80;;;;;;;;;;5014796;28;20029;-79
2024/01/30 02:46:44;;;;;;;3.47;2.35;;;;;;;;;;5014608;28;20040;-79
2024/01/30 02:49:12;;;;;;;2.75;1.70;;;;;;;;;;5014605;28;20480;-79
2024/01/30 02:51:39;;;;;;;3.63;2.10;;;;;;;;;;5014513;28;20034;-79
2024/01/30 02:54:04;;;;;;;3.40;2.30;;;;;;;;;;5014479;28;20396;-77
2024/01/30 02:56:31;;;;;;;2.70;1.70;;;;;;;;;;5014463;28;20025;-81
2024/01/30 02:58:57;;;;;;;3.80;1.98;;;;;;;;;;5013059;28;20506;-80
2024/01/30 03:01:24;;;;;;;2.90;1.67;;;;;;;;;;4996735;28;20092;-79
2024/01/30 03:03:51;;;;;;;3.63;1.70;;;;;;;;;;5013073;28;20033;-80
2024/01/30 03:06:20;;;;;;;5.43;2.03;;;;;;;;;;5013028;28;20072;-80
2024/01/30 03:08:46;;;;;;;3.50;2.03;;;;;;;;;;5021816;28;20042;-80
2024/01/30 03:11:11;;;;;;;3.65;2.10;;;;;;;;;;5034107;28;20056;-79
2024/01/30 03:13:37;;;;;;;3.45;1.95;;;;;;;;;;5034015;28;20045;-79
2024/01/30 03:16:04;;;;;;;4.30;2.15;;;;;;;;;;5022146;28;20468;-80
2024/01/30 03:18:30;;;;;;;4.30;1.77;;;;;;;;;;4996579;28;20439;-81
2024/01/30 03:20:56;;;;;;;4.15;2.28;;;;;;;;;;5014704;28;20025;-79
2024/01/30 03:23:23;;;;;;;3.58;1.92;;;;;;;;;;5012854;28;20516;-79
2024/01/30 03:25:48;;;;;;;3.55;2.28;;;;;;;;;;5013504;28;20060;-80
2024/01/30 03:28:15;;;;;;;4.07;2.38;;;;;;;;;;5013249;28;20061;-80
2024/01/30 03:30:41;;;;;;;3.90;2.10;;;;;;;;;;4996881;28;20495;-80
2024/01/30 03:33:07;;;;;;;3.13;1.83;;;;;;;;;;5013260;28;20034;-79
2024/01/30 03:35:32;;;;;;;2.83;1.90;;;;;;;;;;5014493;28;20030;-79
2024/01/30 03:37:58;;;;;;;5.13;1.85;;;;;;;;;;4996748;28;20037;-80
2024/01/30 03:40:24;;;;;;;3.53;2.08;;;;;;;;;;5013613;28;20038;-82
2024/01/30 03:42:50;;;;;;;3.50;1.95;;;;;;;;;;5012973;28;20073;-80
2024/01/30 03:45:15;;;;;;;4.40;2.58;;;;;;;;;;5013105;28;20034;-80
2024/01/30 03:47:45;;;;;;;5.30;2.13;;;;;;;;;;4996671;28;20025;-80
2024/01/30 03:50:11;;;;;;;4.50;2.50;;;;;;;;;;5012550;28;20594;-80
2024/01/30 03:52:37;;;;;;;5.32;2.38;;;;;;;;;;5012520;28;20128;-80
2024/01/30 03:55:03;;;;;;;5.32;2.80;;;;;;;;;;5014053;28;20029;-80
2024/01/30 03:57:29;;;;;;;5.40;3.20;;;;;;;;;;5014188;28;20034;-79
2024/01/30 03:59:56;;;;;;;4.97;3.20;;;;;;;;;;5012934;28;20033;-79
2024/01/30 04:02:22;;;;;;;3.78;2.42;;;;;;;;;;5013709;28;20088;-81
2024/01/30 04:04:48;;;;;;;4.20;2.40;;;;;;;;;;5012261;28;20034;-80
2024/01/30 04:07:13;;;;;;;3.80;2.33;;;;;;;;;;5002097;28;20106;-81
2024/01/30 04:09:39;;;;;;;4.90;2.60;;;;;;;;;;5017605;28;20095;-80
2024/01/30 04:12:06;;;;;;;4.07;2.50;;;;;;;;;;5013821;28;20033;-81
2024/01/30 04:14:32;;;;;;;5.45;2.30;;;;;;;;;;5012898;28;20046;-81
2024/01/30 04:16:59;;;;;;;2.95;1.90;;;;;;;;;;5011483;28;20037;-80
2024/01/30 04:19:25;;;;;;;3.97;2.30;;;;;;;;;;5013039;28;20047;-80
2024/01/30 04:21:53;;;;;;;3.85;2.20;;;;;;;;;;5011498;28;20030;-81
2024/01/30 04:24:19;;;;;;;3.78;2.20;;;;;;;;;;5018576;28;20096;-80
2024/01/30 04:26:44;;;;;;;3.10;2.05;;;;;;;;;;5014230;28;20391;-80
2024/01/30 04:29:10;;;;;;;5.07;2.65;;;;;;;;;;5013047;28;20404;-81
2024/01/30 04:31:37;;;;;;;5.25;2.55;;;;;;;;;;5011873;28;20496;-80
2024/01/30 04:34:03;;;;;;;6.22;2.55;;;;;;;;;;5012484;28;20041;-80
2024/01/30 04:36:29;;;;;;;4.43;2.63;;;;;;;;;;5011962;28;20467;-81
2024/01/30 04:38:54;;;;;;;4.82;2.88;;;;;;;;;;5012780;28;20046;-81
2024/01/30 04:41:23;;;;;;;5.25;3.15;;;;;;;;;;5011122;28;20046;-81
2024/01/30 04:43:48;;;;;;;5.63;3.47;;;;;;;;;;5013301;28;20042;-81
2024/01/30 04:46:14;;;;;;;8.57;4.65;;;;;;;;;;5016477;28;20032;-81
2024/01/30 04:48:43;;;;;;;11.30;5.35;;;;;;;;;;5011885;28;20037;-80
2024/01/30 04:51:10;;;;;;;15.20;8.43;;;;;;;;;;5012061;28;20030;-80
2024/01/30 04:53:39;;;;;;;8.75;4.82;;;;;;;;;;5008359;28;20034;-83
2024/01/30 04:56:06;;;;;;;9.65;4.97;;;;;;;;;;5011148;28;20132;-82
2024/01/30 04:58:33;;;;;;;9.27;4.80;;;;;;;;;;5008809;28;20040;-81
2024/01/30 05:01:00;;;;;;;9.57;5.00;;;;;;;;;;5009325;28;20124;-81
2024/01/30 05:03:26;;;;;;;8.75;4.47;;;;;;;;;;5011892;28;20049;-80
2024/01/30 05:05:52;;;;;;;7.20;3.72;;;;;;;;;;5011904;28;20030;-80
2024/01/30 05:08:18;;;;;;;6.35;3.78;;;;;;;;;;5013140;28;20034;-81
2024/01/30 05:10:44;;;;;;;6.60;3.47;;;;;;;;;;5012924;28;20053;-80
2024/01/30 05:13:10;;;;;;;8.45;4.60;;;;;;;;;;5012220;28;20475;-81
2024/01/30 05:15:38;;;;;;;7.28;3.53;;;;;;;;;;5009929;28;20054;-80
2024/01/30 05:18:05;;;;;;;6.75;3.65;;;;;;;;;;5012178;28;20115;-80
2024/01/30 05:20:31;;;;;;;7.28;4.07;;;;;;;;;;5014123;28;20036;-81
2024/01/30 05:22:58;;;;;;;8.30;3.90;;;;;;;;;;5017008;28;20041;-78
2024/01/30 05:25:24;;;;;;;4.97;3.33;;;;;;;;;;5016347;28;20095;-80
2024/01/30 05:27:50;;;;;;;6.53;3.72;;;;;;;;;;5002780;28;20034;-80
2024/01/30 05:30:16;;;;;;;14.32;4.10;;;;;;;;;;5010415;28;20498;-78
2024/01/30 05:32:43;;;;;;;6.95;4.03;;;;;;;;;;5012029;28;20036;-80
2024/01/30 05:35:10;;;;;;;10.30;4.78;;;;;;;;;;5011758;28;20042;-81
2024/01/30 05:37:38;;;;;;;10.35;5.40;;;;;;;;;;4994789;28;20065;-81
2024/01/30 05:40:05;;;;;;;4.68;3.33;;;;;;;;;;5012207;28;20506;-82
2024/01/30 05:42:32;;;;;;;10.20;4.05;;;;;;;;;;5012031;28;20037;-81
2024/01/30 05:44:58;;;;;;;7.55;4.60;;;;;;;;;;5012467;28;20044;-80
2024/01/30 05:47:23;;;;;;;7.22;4.43;;;;;;;;;;5012944;28;20050;-81
2024/01/30 05:49:49;;;;;;;5.60;3.20;;;;;;;;;;5011712;28;20037;-82
2024/01/30 05:52:16;;;;;;;14.60;4.00;;;;;;;;;;5010642;28;20377;-81
2024/01/30 05:54:42;;;;;;;12.68;4.38;;;;;;;;;;5009748;28;20326;-81
2024/01/30 05:57:11;;;;;;;12.77;5.35;;;;;;;;;;5010699;28;20097;-78
2024/01/30 05:59:37;;;;;;;8.32;4.85;;;;;;;;;;5010330;28;20833;-79
2024/01/30 06:02:03;;;;;;;7.20;3.50;;;;;;;;;;5009470;28;20041;-78
2024/01/30 06:04:31;;;;;;;11.15;3.65;;;;;;;;;;5010413;28;20038;-78
2024/01/30 06:06:57;;;;;;;11.55;3.78;;;;;;;;;;5017008;28;20048;-79
2024/01/30 06:09:22;;;;;;;7.55;3.78;;;;;;;;;;5010402;28;20034;-78
2024/01/30 06:11:48;;;;;;;8.63;3.08;;;;;;;;;;5011816;28;20081;-79
2024/01/30 06:14:14;;;;;;;20.55;3.60;;;;;;;;;;5014622;28;20380;-78
2024/01/30 06:16:40;;;;;;;4.03;2.22;;;;;;;;;;5014676;28;20106;-78
2024/01/30 06:19:06;;;;;;;7.97;2.40;;;;;;;;;;4997122;28;20096;-78
2024/01/30 06:21:34;;;;;;;5.65;2.10;;;;;;;;;;5013875;28;20030;-79
2024/01/30 06:24:03;;;;;;;5.75;2.17;;;;;;;;;;5006747;28;20112;-79
2024/01/30 06:26:31;;;;;;;20.33;4.28;;;;;;;;;;5011361;28;20041;-81
2024/01/30 06:28:58;;;;;;;15.85;3.22;;;;;;;;;;5011927;28;20132;-78
2024/01/30 06:31:24;;;;;;;22.25;4.85;;;;;;;;;;4996129;28;20126;-79
2024/01/30 06:33:50;;;;;;;3.92;2.20;;;;;;;;;;5014011;28;20045;-78
2024/01/30 06:36:15;;;;;;;7.68;2.50;;;;;;;;;;5014380;28;20109;-78
2024/01/30 06:38:41;;;;;;;7.55;2.38;;;;;;;;;;5013039;28;20037;-79
2024/01/30 06:41:07;;;;;;;22.67;3.75;;;;;;;;;;5013198;28;20069;-80
2024/01/30 06:43:34;;;;;;;11.27;4.03;;;;;;;;;;4995706;28;20042;-80
2024/01/30 06:46:00;;;;;;;28.65;3.53;;;;;;;;;;5012507;28;20356;-79
2024/01/30 06:48:26;;;;;;;20.42;3.53;;;;;;;;;;5014012;28;20034;-79
2024/01/30 06:50:55;;;;;;;8.02;2.78;;;;;;;;;;5013333;28;20050;-79
2024/01/30 06:53:24;;;;;;;14.35;3.53;;;;;;;;;;5013785;28;20022;-79
2024/01/30 06:55:51;;;;;;;22.88;2.95;;;;;;;;;;5012460;28;20033;-78
2024/01/30 06:58:18;;;;;;;9.02;3.17;;;;;;;;;;5014204;28;20135;-78
2024/01/30 07:00:44;;;;;;;6.80;2.28;;;;;;;;;;5012309;28;20041;-79
2024/01/30 07:03:10;;;;;;;6.07;3.05;;;;;;;;;;5013402;28;20373;-79
2024/01/30 07:05:35;;;;;;;5.45;2.33;;;;;;;;;;5013662;28;20069;-79
2024/01/30 07:08:02;;;;;;;11.57;3.40;;;;;;;;;;5013302;28;20068;-79
2024/01/30 07:10:28;;;;;;;7.32;3.15;;;;;;;;;;5012868;28;20452;-80
2024/01/30 07:12:55;;;;;;;19.88;3.78;;;;;;;;;;5013922;28;20396;-78
2024/01/30 07:15:21;;;;;;;28.67;4.65;;;;;;;;;;5012325;28;20014;-79
2024/01/30 07:17:48;;;;;;;5.57;2.38;;;;;;;;;;4996660;28;20038;-78
2024/01/30 07:20:14;;;;;;;10.18;3.30;;;;;;;;;;5011943;28;20036;-79
2024/01/30 07:22:41;;;;;;;9.85;2.53;;;;;;;;;;5012829;28;20478;-78
2024/01/30 07:25:09;;;;;;;10.88;3.30;;;;;;;;;;5012763;28;20235;-78
2024/01/30 07:27:34;;;;;;;12.68;2.25;;;;;;;;;;5013583;28;20049;-78
2024/01/30 07:30:01;;;;;;;3.70;2.00;;;;;;;;;;5011721;28;20104;-78
2024/01/30 07:32:27;;;;;;;6.85;2.30;;;;;;;;;;5011896;28;20480;-78
2024/01/30 07:34:52;;;;;;;4.63;1.63;;;;;;;;;;5012311;28;20049;-79
2024/01/30 07:37:19;;;;;;;5.18;2.05;;;;;;;;;;5012351;28;20463;-80
2024/01/30 07:39:45;;;;;;;9.63;2.45;;;;;;;;;;5010873;28;20065;-79
2024/01/30 07:42:11;;;;;;;10.00;2.47;;;;;;;;;;5014060;28;20030;-80
2024/01/30 07:44:37;;;;;;;23.92;3.88;;;;;;;;;;5012184;28;20543;-79
2024/01/30 07:47:03;;;;;;;4.30;2.50;;;;;;;;;;5019688;28;20121;-78
2024/01/30 07:49:28;;;;;;;10.05;2.72;;;;;;;;;;5013111;28;20145;-80
2024/01/30 07:51:55;;;;;;;6.45;2.42;;;;;;;;;;5013071;28;20046;-79
2024/01/30 07:54:20;;;;;;;8.98;2.28;;;;;;;;;;5021303;28;20038;-78
2024/01/30 07:56:46;;;;;;;5.32;2.58;;;;;;;;;;5011379;28;20030;-80
2024/01/30 07:59:12;;;;;;;5.80;1.95;;;;;;;;;;5001133;28;20438;-80
2024/01/30 08:01:38;;;;;;;3.17;1.92;;;;;;;;;;5007350;28;20030;-80
2024/01/30 08:04:04;;;;;;;12.13;2.90;;;;;;;;;;5012603;28;20030;-78
2024/01/30 08:06:30;;;;;;;13.25;3.05;;;;;;;;;;4995152;28;20034;-80
2024/01/30 08:08:57;;;;;;;26.23;5.47;;;;;;;;;;5012506;28;20045;-79
2024/01/30 08:11:27;;;;;;;4.13;2.28;;;;;;;;;;5012339;28;20041;-78
2024/01/30 08:13:53;;;;;;;17.60;2.88;;;;;;;;;;5012874;28;20040;-77
2024/01/30 08:16:19;;;;;;;9.45;3.67;;;;;;;;;;5012703;28;20097;-80
2024/01/30 08:18:45;;;;;;;17.60;3.53;;;;;;;;;;5012892;28;20044;-79
2024/01/30 08:21:11;;;;;;;5.35;2.25;;;;;;;;;;5012065;28;20123;-79
2024/01/30 08:23:39;;;;;;;9.93;2.67;;;;;;;;;;5012035;28;20111;-80
2024/01/30 08:26:07;;;;;;;11.27;3.13;;;;;;;;;;5011048;28;20065;-80
2024/01/30 08:28:33;;;;;;;6.50;2.60;;;;;;;;;;5010947;28;20467;-79
2024/01/30 08:31:00;;;;;;;4.70;2.85;;;;;;;;;;5012565;28;20096;-79
2024/01/30 08:33:25;;;;;;;9.57;2.75;;;;;;;;;;4994847;28;20038;-79
2024/01/30 08:35:51;;;;;;;8.60;2.90;;;;;;;;;;5010100;28;20030;-77
2024/01/30 08:38:17;;;;;;;7.13;2.85;;;;;;;;;;5011046;28;20499;-78
2024/01/30 08:40:45;;;;;;;9.65;2.53;;;;;;;;;;5011977;28;20525;-78
2024/01/30 08:43:11;;;;;;;10.20;2.85;;;;;;;;;;5010574;28;20028;-78
2024/01/30 08:45:37;;;;;;;12.85;3.42;;;;;;;;;;5010874;28;20037;-78
2024/01/30 08:48:03;;;;;;;10.50;2.70;;;;;;;;;;5011395;28;20162;-79
2024/01/30 08:50:29;;;;;;;11.02;2.80;;;;;;;;;;5009546;28;20525;-76
2024/01/30 08:52:57;;;;;;;26.23;10.93;;;;;;;;;;5011278;28;20471;-78
2024/01/30 08:55:23;;;;;;;15.93;4.05;;;;;;;;;;5011749;28;20116;-77
2024/01/30 08:57:51;;;;;;;27.77;4.60;;;;;;;;;;5010174;28;20044;-78
2024/01/30 09:00:18;;;;;;;15.52;3.85;;;;;;;;;;5009628;28;20033;-78
2024/01/30 09:02:44;;;;;;;4.72;1.98;;;;;;;;;;4990605;28;20050;-78
2024/01/30 09:05:10;;;;;;;21.17;3.63;;;;;;;;;;5010095;28;20140;-78
2024/01/30 09:07:36;;;;;;;3.30;1.98;;;;;;;;;;5012028;28;20018;-79
2024/01/30 09:10:02;;;;;;;3.45;1.85;;;;;;;;;;5010273;28;20038;-78
2024/01/30 09:12:29;;;;;;;8.60;2.30;;;;;;;;;;5007921;28;20045;-78
2024/01/30 09:14:55;;;;;;;2.88;1.95;;;;;;;;;;5010230;28;20080;-78
2024/01/30 09:17:21;;;;;;;5.28;2.03;;;;;;;;;;4993912;28;20104;-79
2024/01/30 09:19:47;;;;;;;30.63;4.10;;;;;;;;;;5011480;28;20503;-79
2024/01/30 09:22:13;;;;;;;3.83;1.60;;;;;;;;;;5010319;28;20056;-79
2024/01/30 09:24:40;;;;;;;2.45;1.45;;;;;;;;;;5010140;28;20042;-78
2024/01/30 09:27:06;;;;;;;3.53;1.70;;;;;;;;;;5011293;28;20487;-80
2024/01/30 09:29:34;;;;;;;3.10;1.80;;;;;;;;;;4990626;28;20080;-78
2024/01/30 09:32:01;;;;;;;4.88;1.98;;;;;;;;;;5008390;28;20263;-78
2024/01/30 09:34:27;;;;;;;2.88;1.80;;;;;;;;;;4994139;28;20037;-80
2024/01/30 09:36:53;;;;;;;9.57;2.35;;;;;;;;;;5010668;28;20091;-79
2024/01/30 09:39:20;;;;;;;3.17;1.58;;;;;;;;;;5010077;28;20034;-80
2024/01/30 09:41:58;;;;;;;3.42;2.00;;;;;;;;;;5011491;28;20452;-78
2024/01/30 09:44:28;;;;;;;2.55;1.80;;;;;;;;;;4987467;28;20049;-78
2024/01/30 09:46:54;;;;;;;4.50;2.28;;;;;;;;;;5009200;28;20038;-80
2024/01/30 09:49:20;;;;;;;3.38;1.95;;;;;;;;;;5011634;28;20061;-81
2024/01/30 09:51:49;;;;;;;3.60;1.90;;;;;;;;;;5011455;28;20385;-79
2024/01/30 09:54:16;;;;;;;4.57;1.85;;;;;;;;;;5010581;28;20045;-80
2024/01/30 09:56:43;;;;;;;7.50;1.67;;;;;;;;;;5009723;28;20109;-79
2024/01/30 09:59:09;;;;;;;2.33;1.60;;;;;;;;;;5010957;28;20030;-77
2024/01/30 10:01:36;;;;;;;7.22;1.92;;;;;;;;;;5009786;28;20057;-79
2024/01/30 10:04:07;;;;;;;8.35;2.58;;;;;;;;;;5009163;28;20106;-79
2024/01/30 10:06:34;;;;;;;3.20;1.63;;;;;;;;;;5010886;28;20130;-79
2024/01/30 10:09:00;;;;;;;4.32;1.55;;;;;;;;;;4988463;28;20043;-79
2024/01/30 10:11:27;;;;;;;3.10;1.88;;;;;;;;;;5009845;28;20067;-78
2024/01/30 10:13:53;;;;;;;4.53;2.10;;;;;;;;;;5010628;28;20380;-78
2024/01/30 10:16:18;;;;;;;5.70;2.60;;;;;;;;;;5011240;28;20024;-79
2024/01/30 10:18:44;;;;;;;4.32;2.10;;;;;;;;;;5012623;28;20109;-79
2024/01/30 10:21:12;;;;;;;7.57;1.92;;;;;;;;;;5009346;28;20035;-80
2024/01/30 10:23:38;;;;;;;3.28;1.50;;;;;;;;;;5011010;28;20420;-78
2024/01/30 10:26:06;;;;;;;3.70;2.08;;;;;;;;;;5012185;28;20030;-79
2024/01/30 10:28:32;;;;;;;8.10;2.28;;;;;;;;;;5011342;28;20048;-78
2024/01/30 10:31:01;;;;;;;4.50;1.83;;;;;;;;;;5011134;28;20054;-81
2024/01/30 10:33:29;;;;;;;4.93;2.40;;;;;;;;;;5009664;28;20331;-79
2024/01/30 10:36:04;;;;;;;3.45;1.90;;;;;;;;;;5010758;28;20022;-78
2024/01/30 10:38:31;;;;;;;5.75;2.28;;;;;;;;;;5010474;28;20131;-79
2024/01/30 10:40:58;;;;;;;6.63;1.98;;;;;;;;;;5011160;28;20038;-79
2024/01/30 10:43:31;;;;;;;6.40;1.92;;;;;;;;;;5001393;28;20040;-81
2024/01/30 10:46:03;;;;;;;3.50;1.88;;;;;;;;;;5008768;28;20038;-79
2024/01/30 10:48:32;;;;;;;2.72;1.80;;;;;;;;;;5008343;28;20125;-79
2024/01/30 10:51:00;;;;;;;7.68;1.90;;;;;;;;;;5008674;28;20038;-80
2024/01/30 10:53:29;;;;;;;4.43;2.53;;;;;;;;;;5010539;28;20041;-78
2024/01/30 10:55:56;;;;;;;4.00;1.58;;;;;;;;;;5010683;28;20033;-80
2024/01/30 10:58:23;;;;;;;2.92;1.50;;;;;;;;;;5018546;28;20112;-80
2024/01/30 11:00:51;;;;;;;5.15;2.60;;;;;;;;;;5014406;28;20057;-80
2024/01/30 11:03:18;;;;;;;3.20;2.10;;;;;;;;;;5013442;28;20660;-79
2024/01/30 11:05:50;;;;;;;3.08;2.10;;;;;;;;;;5013999;28;20041;-78
2024/01/30 11:08:27;;;;;;;4.28;2.05;;;;;;;;;;5013601;28;20046;-77
2024/01/30 11:11:00;;;;;;;3.30;1.88;;;;;;;;;;5012201;28;20042;-80
2024/01/30 11:13:31;;;;;;;5.07;2.28;;;;;;;;;;5014759;28;20795;-79
2024/01/30 11:16:05;;;;;;;6.18;1.55;;;;;;;;;;5012546;28;20099;-78
2024/01/30 11:18:31;;;;;;;;;;;;;;;;;;5013644;28;20499;-78
2024/01/30 11:21:00;;;;;;;7.07;2.42;;;;;;;;;;5013918;28;19945;-78
2024/01/30 11:23:26;;;;;;;3.90;2.15;;;;;;;;;;5009643;28;20137;-80
2024/01/30 11:25:53;;;;;;;2.20;1.50;;;;;;;;;;5006310;28;20046;-79
2024/01/30 11:28:23;;;;;;;2.95;1.80;;;;;;;;;;5012016;28;20045;-79
2024/01/30 11:30:50;;;;;;;9.80;2.08;;;;;;;;;;5011966;28;20476;-79
2024/01/30 11:33:30;;;;;;;3.35;1.58;;;;;;;;;;5013280;28;20042;-77
2024/01/30 11:35:59;;;;;;;3.88;1.63;;;;;;;;;;5013615;28;20117;-78
2024/01/30 11:38:27;;;;;;;2.65;1.75;;;;;;;;;;5013410;28;20030;-77
2024/01/30 11:40:56;;;;;;;2.90;1.77;;;;;;;;;;5012869;28;20034;-77
2024/01/30 11:43:22;;;;;;;4.00;1.85;;;;;;;;;;5013331;28;20058;-78
2024/01/30 11:45:48;;;;;;;4.30;1.90;;;;;;;;;;5011698;28;20046;-76
2024/01/30 11:48:14;;;;;;;2.80;1.60;;;;;;;;;;5013929;28;20129;-78
2024/01/30 11:50:44;;;;;;;3.53;1.50;;;;;;;;;;5019185;28;20033;-76
2024/01/30 11:53:10;;;;;;;3.72;2.25;;;;;;;;;;5011625;28;20048;-78
2024/01/30 11:55:37;;;;;;;2.63;1.63;;;;;;;;;;5014343;28;20041;-77
2024/01/30 11:58:06;;;;;;;3.50;1.67;;;;;;;;;;5014153;28;20468;-80
2024/01/30 12:00:35;;;;;;;2.97;1.42;;;;;;;;;;5010050;28;20034;-79
2024/01/30 12:03:02;;;;;;;9.75;2.10;;;;;;;;;;5012721;28;20038;-78
2024/01/30 12:05:28;;;;;;;4.40;1.73;;;;;;;;;;5012851;28;20080;-77
2024/01/30 12:07:54;;;;;;;7.38;1.80;;;;;;;;;;5008851;28;20410;-78
2024/01/30 12:10:22;;;;;;;4.68;1.88;;;;;;;;;;5010339;28;20017;-76
2024/01/30 12:12:49;;;;;;;2.38;1.40;;;;;;;;;;5011112;28;20037;-77
2024/01/30 12:15:16;;;;;;;3.35;1.92;;;;;;;;;;5012418;28;20053;-79
2024/01/30 12:17:42;;;;;;;5.60;1.90;;;;;;;;;;5011274;28;20037;-78
2024/01/30 12:20:15;;;;;;;3.05;2.10;;;;;;;;;;5012031;28;20487;-78
2024/01/30 13:38:34;;;;;;;3.53;1.80;;;;;;;;;;5087049;27;20391;-78
2024/01/30 13:41:00;;;;;;;5.55;1.90;;;;;;;;;;5094609;28;20118;-78
2024/01/30 13:43:26;;;;;;;4.45;1.90;;;;;;;;;;5057004;28;20033;-78
2024/01/30 13:45:53;;;;;;;3.67;2.22;;;;;;;;;;5052089;28;20033;-77
2024/01/30 13:48:19;;;;;;;5.32;2.22;;;;;;;;;;5077076;28;20035;-78
2024/01/30 13:50:45;;;;;;;3.17;2.00;;;;;;;;;;5053773;28;20028;-79
2024/01/30 13:53:13;;;;;;;6.15;2.30;;;;;;;;;;5087745;28;20036;-77
2024/01/30 13:55:40;;;;;;;4.00;2.50;;;;;;;;;;5075430;28;20031;-78
2024/01/30 13:58:07;;;;;;;4.43;2.05;;;;;;;;;;5068590;28;20574;-78
2024/01/30 14:00:33;;;;;;;3.40;1.60;;;;;;;;;;5074710;28;20056;-79
2024/01/30 14:03:00;;;;;;;5.63;2.38;;;;;;;;;;5056628;28;20478;-79
2024/01/30 14:05:29;;;;;;;2.75;1.25;;;;;;;;;;5061758;28;20066;-79
2024/01/30 14:07:57;;;;;;;9.35;1.80;;;;;;;;;;5070122;28;20096;-78
2024/01/30 14:10:23;;;;;;;5.03;1.58;;;;;;;;;;5088233;28;20264;-78
2024/01/30 14:12:49;;;;;;;3.30;1.77;;;;;;;;;;5076589;28;20029;-78
2024/01/30 14:15:17;;;;;;;5.40;1.55;;;;;;;;;;5075522;28;20037;-79
2024/01/30 14:17:44;;;;;;;2.15;1.30;;;;;;;;;;5068500;28;20067;-80
2024/01/30 14:20:11;;;;;;;18.42;3.63;;;;;;;;;;5054520;28;20044;-77
2024/01/30 14:22:39;;;;;;;2.75;1.52;;;;;;;;;;5039546;28;20029;-80
2024/01/30 14:25:07;;;;;;;7.65;3.20;;;;;;;;;;5053335;28;20049;-78
2024/01/30 14:27:35;;;;;;;3.17;1.92;;;;;;;;;;5075809;28;20028;-81
2024/01/30 14:30:03;;;;;;;4.80;1.70;;;;;;;;;;5039503;28;20049;-79
2024/01/30 14:32:29;;;;;;;3.78;1.90;;;;;;;;;;5049636;28;20040;-79
2024/01/30 14:34:54;;;;;;;4.50;2.33;;;;;;;;;;5046842;28;20032;-80
2024/01/30 14:37:21;;;;;;;3.50;2.30;;;;;;;;;;5066827;28;20025;-81
2024/01/30 14:39:51;;;;;;;4.97;2.28;;;;;;;;;;5066473;28;20049;-80
2024/01/30 14:42:17;;;;;;;6.25;2.45;;;;;;;;;;5074037;28;20572;-80
2024/01/30 14:44:45;;;;;;;5.78;2.30;;;;;;;;;;5071859;28;20036;-79
2024/01/30 14:47:13;;;;;;;3.35;1.30;;;;;;;;;;5074788;28;20035;-80
2024/01/30 14:49:39;;;;;;;2.72;1.70;;;;;;;;;;5040319;28;20037;-80
2024/01/30 14:52:04;;;;;;;3.97;2.50;;;;;;;;;;5036872;28;20021;-81
2024/01/30 14:54:30;;;;;;;6.18;2.20;;;;;;;;;;5059074;28;20052;-81
2024/01/30 14:56:59;;;;;;;13.13;2.47;;;;;;;;;;5054178;28;20059;-82
2024/01/30 14:59:25;;;;;;;6.53;3.42;;;;;;;;;;5054148;28;20064;-80
2024/01/30 15:01:52;;;;;;;4.95;2.65;;;;;;;;;;5053914;28;20095;-80
2024/01/30 15:04:21;;;;;;;7.43;2.80;;;;;;;;;;5048576;28;20438;-79
2024/01/30 15:06:48;;;;;;;6.55;2.50;;;;;;;;;;5047089;28;20061;-79
2024/01/30 15:09:15;;;;;;;7.45;3.20;;;;;;;;;;5054570;28;20025;-80
2024/01/30 15:11:44;;;;;;;5.78;2.20;;;;;;;;;;5045551;28;20036;-80
2024/01/30 15:14:12;;;;;;;7.50;3.38;;;;;;;;;;5045465;28;20450;-80
2024/01/30 15:16:38;;;;;;;6.07;2.95;;;;;;;;;;5044962;28;20045;-78
2024/01/30 15:19:04;;;;;;;6.75;2.80;;;;;;;;;;5047413;28;20083;-78
2024/01/30 15:21:31;;;;;;;7.60;3.92;;;;;;;;;;5051800;28;20025;-76
2024/01/30 15:23:59;;;;;;;5.43;2.70;;;;;;;;;;5017554;28;20094;-78
2024/01/30 15:26:26;;;;;;;7.82;3.13;;;;;;;;;;5043053;28;20051;-77
2024/01/30 15:28:51;;;;;;;10.05;4.18;;;;;;;;;;5057160;28;20016;-78
2024/01/30 15:31:18;;;;;;;7.20;3.40;;;;;;;;;;5072758;28;20045;-77
2024/01/30 15:33:43;;;;;;;4.72;2.67;;;;;;;;;;5056625;28;20041;-77
2024/01/30 15:36:13;;;;;;;6.07;2.38;;;;;;;;;;5056851;28;20026;-77
2024/01/30 15:38:39;;;;;;;5.57;2.92;;;;;;;;;;5035952;28;20045;-77
2024/01/30 15:41:04;;;;;;;5.75;2.70;;;;;;;;;;5067553;28;20028;-78
2024/01/30 15:43:32;;;;;;;6.85;3.50;;;;;;;;;;5054100;28;20182;-78
2024/01/30 15:46:00;;;;;;;7.65;3.90;;;;;;;;;;5052450;28;20550;-77
2024/01/30 15:48:27;;;;;;;5.70;3.42;;;;;;;;;;5051099;28;20040;-76
2024/01/30 15:50:54;;;;;;;5.75;3.60;;;;;;;;;;5033757;28;20704;-80
2024/01/30 15:53:22;;;;;;;6.93;4.20;;;;;;;;;;5051397;28;20051;-79